Terminal Aerodrome Forecast
Issued by NWS

Home | Current Version | Previous Version | Text Only | Print | Product List | Glossary On
Versions: 1 2 3 4 5 6 7 8 9 10 11 12 13 14 15 16 17 18 19 20 21 22 23 24 25 26 27 28 29 30 31 32 33 34 35 36 37 38 39 40 41 42 43 44 45 46 47 48
000
FTUS45 KGJT 181728
TAFMTJ
TAF
KMTJ 181728Z 1818/1918 18005KT P6SM -RA VCSH BKN035 OVC045
     FM182000 30010KT 3SM -RASN OVC020
     FM190200 13006KT P6SM OVC030
     FM190600 15006KT P6SM VCFG SCT006 BKN070
     FM191200 14003KT P6SM OVC100=

USA.gov is the U.S. government's official web portal to all federal, state and local government web resources and services.